Time;durP1;ratioP1;P1;durP2;ratioP2;P2;SDS_P1;SDS_P2;PMS_P1;PMS_P2;Temp;Humidity;BMP_temperature;BMP_pressure;BME280_temperature;BME280_humidity;BME280_pressure;Samples;Min_cycle;Max_cycle;Signal;HPM_P1;HPM_P2
2022/03/02 00:01:57;;;;;;;11.55;8.73;;;5.40;99.90;;;;;;4975161;28;20358;-73
2022/03/02 00:04:23;;;;;;;10.93;8.70;;;5.30;99.90;;;;;;4974668;28;20065;-71
2022/03/02 00:06:49;;;;;;;15.73;9.60;;;5.30;99.90;;;;;;4991381;28;20054;-71
2022/03/02 00:09:15;;;;;;;11.80;8.63;;;5.30;99.90;;;;;;4973079;28;20109;-72
2022/03/02 00:11:41;;;;;;;11.38;8.38;;;5.40;99.90;;;;;;4990303;28;20457;-72
2022/03/02 00:14:07;;;;;;;12.82;7.43;;;5.50;99.90;;;;;;4970646;28;20500;-73
2022/03/02 00:16:34;;;;;;;9.50;7.53;;;5.40;99.90;;;;;;4992650;28;20477;-74
2022/03/02 00:19:01;;;;;;;12.07;9.32;;;5.30;99.90;;;;;;4984404;28;20113;-74
2022/03/02 00:21:26;;;;;;;11.00;7.35;;;5.30;99.90;;;;;;4981144;28;20113;-73
2022/03/02 00:23:52;;;;;;;11.00;7.78;;;5.30;99.90;;;;;;4986604;28;20556;-73
2022/03/02 00:26:19;;;;;;;11.23;8.15;;;5.20;99.90;;;;;;4973614;28;20121;-74
2022/03/02 00:28:45;;;;;;;11.48;8.75;;;5.20;99.90;;;;;;4973200;28;20037;-73
2022/03/02 00:31:11;;;;;;;9.07;7.40;;;5.10;99.90;;;;;;4968309;28;20034;-75
2022/03/02 00:33:37;;;;;;;10.60;8.00;;;5.10;99.90;;;;;;4971629;28;20385;-74
2022/03/02 00:36:03;;;;;;;9.05;7.43;;;5.10;99.90;;;;;;4990286;28;20500;-73
2022/03/02 00:38:29;;;;;;;8.57;7.65;;;5.00;99.90;;;;;;4990949;28;20033;-74
2022/03/02 00:40:55;;;;;;;11.88;8.57;;;5.00;99.90;;;;;;4981679;28;20023;-74
2022/03/02 00:43:21;;;;;;;9.10;7.40;;;5.10;99.90;;;;;;4982611;28;20038;-75
2022/03/02 00:45:47;;;;;;;10.68;7.63;;;5.00;99.90;;;;;;4965883;28;20080;-74
2022/03/02 00:48:13;;;;;;;10.02;7.47;;;4.90;99.90;;;;;;4972133;28;20103;-74
2022/03/02 00:50:40;;;;;;;18.67;8.35;;;5.00;99.90;;;;;;4984633;28;20401;-74
2022/03/02 00:53:07;;;;;;;11.27;8.20;;;5.10;99.90;;;;;;4985298;28;20041;-75
2022/03/02 00:55:35;;;;;;;12.43;8.02;;;5.10;99.90;;;;;;4985563;28;20025;-75
2022/03/02 00:58:01;;;;;;;10.02;7.25;;;5.00;99.90;;;;;;4971470;28;20492;-73
2022/03/02 01:00:27;;;;;;;10.52;8.38;;;5.00;99.90;;;;;;4971398;28;20489;-74
2022/03/02 01:02:53;;;;;;;12.98;8.82;;;5.00;99.90;;;;;;4972791;28;20369;-74
2022/03/02 01:05:19;;;;;;;8.55;7.28;;;5.00;99.90;;;;;;4982806;28;20030;-73
2022/03/02 01:07:45;;;;;;;10.85;8.95;;;5.00;99.90;;;;;;4985007;28;20041;-75
2022/03/02 01:10:11;;;;;;;9.02;7.43;;;5.10;99.90;;;;;;4968859;28;20030;-73
2022/03/02 01:12:37;;;;;;;12.85;7.07;;;5.00;99.90;;;;;;4986225;28;20058;-73
2022/03/02 01:15:04;;;;;;;10.40;8.07;;;5.00;99.90;;;;;;4968169;28;20100;-73
2022/03/02 01:17:30;;;;;;;11.02;8.05;;;5.10;99.90;;;;;;4973483;28;20026;-73
2022/03/02 01:19:56;;;;;;;9.65;7.75;;;5.00;99.90;;;;;;4970641;28;20114;-74
2022/03/02 01:22:22;;;;;;;11.23;8.13;;;5.00;99.90;;;;;;4989318;28;20104;-73
2022/03/02 01:24:48;;;;;;;8.75;7.43;;;5.00;99.90;;;;;;4986407;28;20452;-74
2022/03/02 01:27:14;;;;;;;14.00;7.93;;;5.00;99.90;;;;;;4970157;28;20044;-74
2022/03/02 01:29:39;;;;;;;7.55;6.50;;;4.90;99.90;;;;;;4967891;28;20057;-73
2022/03/02 01:32:08;;;;;;;10.48;7.30;;;4.90;99.90;;;;;;4990719;28;20031;-75
2022/03/02 01:34:35;;;;;;;14.70;8.85;;;5.00;99.90;;;;;;4987935;28;20033;-71
2022/03/02 01:37:01;;;;;;;8.63;7.75;;;4.90;99.90;;;;;;4985374;28;20601;-73
2022/03/02 01:39:27;;;;;;;10.23;7.38;;;4.90;99.90;;;;;;4966583;28;20262;-73
2022/03/02 01:41:52;;;;;;;11.35;7.85;;;5.00;99.90;;;;;;4969128;28;20100;-73
2022/03/02 01:44:19;;;;;;;9.88;8.25;;;5.00;99.90;;;;;;4984339;28;20026;-73
2022/03/02 01:46:45;;;;;;;8.15;7.35;;;4.90;99.90;;;;;;4982506;28;20030;-75
2022/03/02 01:49:11;;;;;;;10.00;7.75;;;5.00;99.90;;;;;;4968937;28;20022;-75
2022/03/02 01:51:37;;;;;;;10.30;7.97;;;5.00;99.90;;;;;;4973447;28;20069;-74
2022/03/02 01:54:03;;;;;;;13.75;10.07;;;5.00;99.90;;;;;;4990405;28;20034;-73
2022/03/02 01:56:30;;;;;;;10.25;8.57;;;5.00;99.90;;;;;;4968837;28;20078;-73
2022/03/02 01:58:56;;;;;;;14.25;8.88;;;5.00;99.90;;;;;;4967028;28;20077;-73
2022/03/02 02:01:22;;;;;;;11.15;8.88;;;5.00;99.90;;;;;;4985760;28;20108;-74
2022/03/02 02:03:48;;;;;;;10.93;8.05;;;5.00;99.90;;;;;;4986590;28;20058;-73
2022/03/02 02:06:14;;;;;;;10.65;7.78;;;5.00;99.90;;;;;;4988610;28;20489;-73
2022/03/02 02:08:41;;;;;;;8.73;7.50;;;4.90;99.90;;;;;;4967757;28;20046;-73
2022/03/02 02:11:09;;;;;;;11.00;7.95;;;4.80;99.90;;;;;;4967253;28;20109;-72
2022/03/02 02:13:35;;;;;;;12.18;8.25;;;4.90;99.90;;;;;;4985016;28;20031;-74
2022/03/02 02:16:04;;;;;;;9.55;7.65;;;4.90;99.90;;;;;;4983015;28;20068;-73
2022/03/02 02:18:30;;;;;;;8.75;7.57;;;4.80;99.90;;;;;;4973203;28;20030;-74
2022/03/02 02:21:04;;;;;;;10.88;7.40;;;4.80;99.90;;;;;;4975691;28;20113;-74
2022/03/02 02:23:30;;;;;;;12.27;8.65;;;4.80;99.90;;;;;;4974712;28;20034;-75
2022/03/02 02:25:56;;;;;;;10.25;8.02;;;4.80;99.90;;;;;;4988287;28;20026;-74
2022/03/02 02:28:27;;;;;;;10.45;7.78;;;4.70;99.90;;;;;;4987835;28;20041;-73
2022/03/02 02:30:54;;;;;;;10.65;8.57;;;4.60;99.90;;;;;;4970403;28;20106;-75
2022/03/02 02:33:21;;;;;;;11.88;7.57;;;4.60;99.90;;;;;;4990042;28;20026;-74
2022/03/02 02:35:47;;;;;;;8.68;7.78;;;4.60;99.90;;;;;;4992255;28;20106;-72
2022/03/02 02:38:13;;;;;;;10.80;8.02;;;4.60;99.90;;;;;;5000039;28;20461;-73
2022/03/02 02:40:39;;;;;;;10.18;7.38;;;4.70;99.90;;;;;;4993813;28;20081;-74
2022/03/02 02:43:06;;;;;;;12.95;8.30;;;4.60;99.90;;;;;;4977558;28;20041;-73
2022/03/02 02:45:32;;;;;;;11.52;7.65;;;4.50;99.90;;;;;;4995187;28;20449;-74
2022/03/02 02:47:58;;;;;;;9.85;7.85;;;4.40;99.90;;;;;;4982432;28;20041;-74
2022/03/02 02:50:26;;;;;;;10.65;7.70;;;4.40;99.90;;;;;;4981212;28;20060;-73
2022/03/02 02:52:53;;;;;;;13.02;8.32;;;4.60;99.90;;;;;;4995072;28;20038;-75
2022/03/02 02:55:20;;;;;;;8.80;7.30;;;4.80;99.90;;;;;;4994480;28;20061;-74
2022/03/02 02:57:46;;;;;;;10.88;7.22;;;4.80;99.90;;;;;;4999778;28;20033;-74
2022/03/02 03:00:15;;;;;;;10.30;7.47;;;4.80;99.90;;;;;;4985339;28;20105;-74
2022/03/02 03:02:41;;;;;;;8.75;7.30;;;4.70;99.90;;;;;;4974840;28;20110;-74
2022/03/02 03:05:20;;;;;;;8.50;7.70;;;4.50;99.90;;;;;;4969248;28;20033;-73
2022/03/02 03:07:46;;;;;;;9.02;7.40;;;4.50;99.90;;;;;;4991596;28;20034;-74
2022/03/02 03:10:13;;;;;;;11.10;8.63;;;4.40;99.90;;;;;;4989086;28;20125;-72
2022/03/02 03:12:39;;;;;;;10.55;8.13;;;4.30;99.90;;;;;;4992990;28;20086;-72
2022/03/02 03:15:08;;;;;;;9.25;7.70;;;4.20;99.90;;;;;;4970722;28;20465;-73
2022/03/02 03:17:34;;;;;;;12.63;8.77;;;4.30;99.90;;;;;;4972935;28;20449;-73
2022/03/02 03:20:00;;;;;;;12.35;7.40;;;4.50;99.90;;;;;;4991299;28;20029;-73
2022/03/02 03:22:25;;;;;;;8.93;6.63;;;4.60;99.90;;;;;;4992730;28;20101;-74
2022/03/02 03:24:52;;;;;;;9.35;6.88;;;4.70;99.90;;;;;;4970085;28;20093;-73
2022/03/02 03:27:18;;;;;;;10.95;7.28;;;4.70;99.90;;;;;;4986402;28;20108;-73
2022/03/02 03:29:43;;;;;;;8.90;6.88;;;4.70;99.90;;;;;;4969399;28;20030;-73
2022/03/02 03:32:09;;;;;;;7.72;6.93;;;4.80;99.90;;;;;;4966066;28;20113;-73
2022/03/02 03:34:35;;;;;;;8.65;6.38;;;4.80;99.90;;;;;;4975329;28;20441;-73
2022/03/02 03:37:01;;;;;;;13.80;7.20;;;4.80;99.90;;;;;;4989223;28;20030;-72
2022/03/02 03:39:27;;;;;;;12.60;6.25;;;4.90;99.90;;;;;;4990849;28;20027;-73
2022/03/02 03:41:55;;;;;;;10.23;5.57;;;4.90;99.90;;;;;;4998137;28;20956;-73
2022/03/02 03:44:24;;;;;;;8.02;6.25;;;4.90;99.90;;;;;;5005207;28;20538;-73
2022/03/02 03:46:50;;;;;;;10.10;7.10;;;4.90;99.90;;;;;;5004068;28;20038;-73
2022/03/02 03:49:16;;;;;;;10.38;6.53;;;4.80;99.90;;;;;;4996181;28;20081;-73
2022/03/02 03:51:42;;;;;;;10.95;7.82;;;4.70;99.90;;;;;;4991133;28;20027;-74
2022/03/02 03:54:09;;;;;;;9.50;7.15;;;4.60;99.90;;;;;;5009057;28;20037;-74
2022/03/02 03:56:35;;;;;;;6.28;5.65;;;4.50;99.90;;;;;;4987191;28;20041;-73
2022/03/02 03:59:01;;;;;;;11.90;7.35;;;4.40;99.90;;;;;;4987648;28;20026;-73
2022/03/02 04:01:27;;;;;;;8.10;6.05;;;4.40;99.90;;;;;;5005278;28;20030;-72
2022/03/02 04:03:54;;;;;;;7.85;6.15;;;4.40;99.90;;;;;;5001198;28;20185;-73
2022/03/02 04:06:20;;;;;;;8.35;6.35;;;4.30;99.90;;;;;;4979314;28;20035;-73
2022/03/02 04:08:46;;;;;;;14.70;6.97;;;4.30;99.90;;;;;;5004404;28;20026;-73
2022/03/02 04:11:12;;;;;;;7.93;6.43;;;4.40;99.90;;;;;;4997404;28;20547;-73
2022/03/02 04:13:38;;;;;;;12.65;6.20;;;4.40;99.90;;;;;;4999593;28;20030;-74
2022/03/02 04:16:04;;;;;;;12.50;6.80;;;4.40;99.90;;;;;;4982563;28;20010;-73
2022/03/02 04:18:33;;;;;;;9.07;6.68;;;4.20;99.90;;;;;;5010108;28;20027;-74
2022/03/02 04:21:00;;;;;;;9.63;6.82;;;4.20;99.90;;;;;;5006108;28;20022;-73
2022/03/02 04:23:26;;;;;;;11.35;6.75;;;4.20;99.90;;;;;;4999084;28;20031;-73
2022/03/02 04:25:53;;;;;;;7.13;5.78;;;4.30;99.90;;;;;;4976954;28;20084;-75
2022/03/02 04:28:19;;;;;;;8.07;6.95;;;4.30;99.90;;;;;;4994538;28;20507;-72
2022/03/02 04:30:45;;;;;;;9.18;6.32;;;4.30;99.90;;;;;;4994046;28;20033;-75
2022/03/02 04:33:12;;;;;;;8.25;6.45;;;4.40;99.90;;;;;;5007472;28;20461;-74
2022/03/02 04:35:39;;;;;;;9.07;6.28;;;4.40;99.90;;;;;;4994217;28;20049;-73
2022/03/02 04:38:05;;;;;;;8.40;6.30;;;4.40;99.90;;;;;;4992994;28;20014;-73
2022/03/02 04:40:31;;;;;;;10.85;6.65;;;4.50;99.90;;;;;;4993570;28;20076;-73
2022/03/02 04:42:57;;;;;;;10.95;6.38;;;4.40;99.90;;;;;;4993883;28;20022;-73
2022/03/02 04:45:25;;;;;;;8.27;5.82;;;4.40;99.90;;;;;;4992780;28;20033;-73
2022/03/02 04:47:52;;;;;;;10.45;5.95;;;4.40;99.90;;;;;;4992721;28;20026;-73
2022/03/02 04:50:22;;;;;;;13.85;5.68;;;4.40;99.90;;;;;;4988714;28;20031;-74
2022/03/02 04:52:49;;;;;;;10.30;6.07;;;4.40;99.90;;;;;;4990260;28;20037;-75
2022/03/02 04:55:16;;;;;;;11.75;6.00;;;4.30;99.90;;;;;;4991458;28;20035;-73
2022/03/02 04:57:56;;;;;;;7.50;6.43;;;4.30;99.90;;;;;;4991529;28;20056;-76
2022/03/02 05:00:28;;;;;;;8.40;6.13;;;4.30;99.90;;;;;;4961901;28;20361;-74
2022/03/02 05:02:55;;;;;;;10.95;7.07;;;4.40;99.90;;;;;;4984416;28;20023;-76
2022/03/02 05:05:23;;;;;;;8.63;6.10;;;4.30;99.90;;;;;;4990693;28;20038;-74
2022/03/02 05:07:50;;;;;;;8.20;5.43;;;4.30;99.90;;;;;;4980089;28;20105;-74
2022/03/02 05:10:19;;;;;;;7.38;5.72;;;4.30;99.90;;;;;;4985584;28;20090;-74
2022/03/02 05:12:45;;;;;;;8.82;5.63;;;4.30;99.90;;;;;;5007600;28;20033;-74
2022/03/02 05:15:14;;;;;;;13.60;7.20;;;4.30;99.90;;;;;;4984784;28;20027;-74
2022/03/02 05:17:41;;;;;;;7.80;6.75;;;4.30;99.90;;;;;;5000726;28;20022;-74
2022/03/02 05:20:10;;;;;;;7.40;5.75;;;4.30;99.90;;;;;;4981887;28;20022;-74
2022/03/02 05:22:36;;;;;;;8.55;6.18;;;4.30;99.90;;;;;;5001991;28;20023;-74
2022/03/02 05:25:05;;;;;;;11.05;6.85;;;4.30;99.90;;;;;;4989131;28;20137;-73
2022/03/02 05:27:31;;;;;;;7.40;6.63;;;4.30;99.90;;;;;;4983519;28;20037;-73
2022/03/02 05:29:57;;;;;;;8.90;6.25;;;4.30;99.90;;;;;;4980093;28;20030;-73
2022/03/02 05:32:23;;;;;;;10.73;6.15;;;4.20;99.90;;;;;;4977594;28;20093;-76
2022/03/02 05:34:48;;;;;;;11.98;7.65;;;4.20;99.90;;;;;;5001358;28;20041;-74
2022/03/02 05:37:14;;;;;;;11.18;5.97;;;4.20;99.90;;;;;;5007122;28;20401;-73
2022/03/02 05:39:40;;;;;;;7.60;6.15;;;4.20;99.90;;;;;;4998090;28;20026;-74
2022/03/02 05:42:06;;;;;;;13.95;6.75;;;4.20;99.90;;;;;;4993197;28;20034;-74
2022/03/02 05:44:32;;;;;;;9.43;6.32;;;4.10;99.90;;;;;;4974952;28;20038;-73
2022/03/02 05:46:58;;;;;;;11.88;6.78;;;4.10;99.90;;;;;;4991908;28;20030;-74
2022/03/02 05:49:24;;;;;;;8.48;6.38;;;4.10;99.90;;;;;;4994491;28;20124;-74
2022/03/02 05:51:50;;;;;;;12.32;7.65;;;4.10;99.90;;;;;;4976012;28;20089;-74
2022/03/02 05:54:16;;;;;;;11.63;6.82;;;4.20;99.90;;;;;;4975709;28;20057;-73
2022/03/02 05:56:41;;;;;;;16.95;6.93;;;4.10;99.90;;;;;;4993769;28;20030;-76
2022/03/02 05:59:10;;;;;;;13.57;6.00;;;4.00;99.90;;;;;;4992907;28;20022;-75
2022/03/02 06:01:37;;;;;;;9.85;7.32;;;3.90;99.90;;;;;;4976538;28;20524;-74
2022/03/02 06:04:05;;;;;;;10.35;6.60;;;3.90;99.90;;;;;;4992024;28;20050;-76
2022/03/02 06:06:32;;;;;;;11.20;7.50;;;3.90;99.90;;;;;;4992043;28;20033;-75
2022/03/02 06:08:59;;;;;;;14.65;7.60;;;3.90;99.90;;;;;;4992002;28;20023;-76
2022/03/02 06:11:25;;;;;;;12.27;7.65;;;4.00;99.90;;;;;;4972290;28;20038;-75
2022/03/02 06:13:51;;;;;;;11.65;7.70;;;3.90;99.90;;;;;;4990755;28;20100;-74
2022/03/02 06:16:17;;;;;;;11.13;7.72;;;3.90;99.90;;;;;;4990345;28;20045;-74
2022/03/02 06:18:43;;;;;;;9.30;6.88;;;3.80;99.90;;;;;;4990482;28;20019;-74
2022/03/02 06:21:16;;;;;;;11.90;7.10;;;3.90;99.90;;;;;;4972198;28;20120;-73
2022/03/02 06:23:42;;;;;;;22.38;8.02;;;3.80;99.90;;;;;;4991344;28;20105;-76
2022/03/02 06:26:08;;;;;;;12.60;8.18;;;3.70;99.90;;;;;;4974395;28;20033;-76
2022/03/02 06:28:34;;;;;;;8.60;7.30;;;3.80;99.90;;;;;;4975399;28;20030;-73
2022/03/02 06:31:00;;;;;;;12.13;7.30;;;3.90;99.90;;;;;;4990249;28;20469;-75
2022/03/02 06:33:26;;;;;;;11.60;7.15;;;4.00;99.90;;;;;;4986841;28;20042;-74
2022/03/02 06:35:52;;;;;;;14.52;8.05;;;4.00;99.90;;;;;;4973267;28;20061;-75
2022/03/02 06:38:18;;;;;;;17.67;10.05;;;4.10;99.90;;;;;;4972708;28;20056;-74
2022/03/02 06:41:14;;;;;;;15.35;9.15;;;4.10;99.90;;;;;;4991855;28;20097;-75
2022/03/02 06:43:51;;;;;;;12.38;8.13;;;4.10;99.90;;;;;;4982086;28;20030;-75
2022/03/02 06:46:35;;;;;;;11.75;8.23;;;4.10;99.90;;;;;;4966371;28;20022;-76
2022/03/02 06:49:07;;;;;;;13.38;10.30;;;4.30;99.90;;;;;;4965546;28;20034;-75
2022/03/02 06:51:39;;;;;;;11.77;9.48;;;4.30;99.90;;;;;;4966853;28;20496;-73
2022/03/02 06:54:09;;;;;;;16.23;9.83;;;4.20;99.90;;;;;;4967768;28;20034;-74
2022/03/02 06:56:45;;;;;;;14.55;8.77;;;4.20;99.90;;;;;;4980859;28;20441;-75
2022/03/02 06:59:14;;;;;;;12.57;9.00;;;4.40;99.90;;;;;;4984483;28;20023;-75
2022/03/02 07:01:43;;;;;;;14.00;9.40;;;4.60;99.90;;;;;;4971181;28;20022;-75
2022/03/02 07:04:13;;;;;;;14.38;8.55;;;4.70;99.90;;;;;;4985936;28;20139;-75
2022/03/02 07:06:38;;;;;;;15.02;8.98;;;4.80;99.90;;;;;;4968958;28;20029;-75
2022/03/02 07:09:06;;;;;;;12.68;9.13;;;4.90;99.90;;;;;;4991093;28;20034;-75
2022/03/02 07:11:33;;;;;;;13.20;9.10;;;5.00;99.90;;;;;;4975225;28;20134;-76
2022/03/02 07:14:00;;;;;;;15.18;8.90;;;5.30;99.90;;;;;;4988105;28;20520;-75
2022/03/02 07:16:28;;;;;;;13.32;8.13;;;5.40;99.90;;;;;;4987185;28;20030;-74
2022/03/02 07:18:55;;;;;;;12.68;9.25;;;5.60;99.90;;;;;;4971173;28;20035;-76
2022/03/02 07:21:24;;;;;;;18.55;11.23;;;5.70;99.90;;;;;;4987055;28;20031;-74
2022/03/02 07:24:11;;;;;;;14.68;9.20;;;5.70;99.90;;;;;;4991155;28;20536;-74
2022/03/02 07:26:50;;;;;;;17.00;8.43;;;5.80;99.90;;;;;;4984735;28;20022;-77
2022/03/02 07:29:18;;;;;;;19.70;10.10;;;5.90;99.90;;;;;;4989936;28;20061;-75
2022/03/02 07:31:45;;;;;;;23.55;8.70;;;5.90;99.90;;;;;;4987152;28;20484;-73
2022/03/02 07:34:13;;;;;;;11.27;9.05;;;5.90;99.90;;;;;;4986961;28;20023;-75
2022/03/02 07:36:40;;;;;;;13.13;9.48;;;6.00;99.90;;;;;;4971551;28;20477;-74
2022/03/02 07:39:07;;;;;;;10.90;8.80;;;6.00;99.90;;;;;;4972167;28;20030;-76
2022/03/02 07:41:33;;;;;;;14.25;9.25;;;6.00;99.90;;;;;;4973110;28;20481;-75
2022/03/02 07:43:58;;;;;;;14.85;10.02;;;6.10;99.90;;;;;;4970299;28;20034;-77
2022/03/02 07:46:28;;;;;;;12.93;10.20;;;6.20;99.90;;;;;;4973363;28;20034;-73
2022/03/02 07:48:54;;;;;;;12.95;9.77;;;6.20;99.90;;;;;;4970611;28;20026;-74
2022/03/02 07:51:22;;;;;;;15.32;9.98;;;6.30;99.90;;;;;;4988084;28;20035;-75
2022/03/02 07:53:50;;;;;;;10.90;8.13;;;6.40;99.90;;;;;;4972933;28;20030;-74
2022/03/02 07:56:17;;;;;;;14.57;8.55;;;6.40;99.90;;;;;;4985086;28;20528;-76
2022/03/02 07:58:43;;;;;;;11.25;8.57;;;6.60;99.90;;;;;;4965541;28;20065;-75
2022/03/02 08:01:14;;;;;;;15.40;11.20;;;6.60;99.90;;;;;;4974217;28;20030;-75
2022/03/02 08:03:41;;;;;;;10.82;8.27;;;6.70;99.50;;;;;;4972169;28;20054;-75
2022/03/02 08:06:08;;;;;;;14.13;9.98;;;6.80;99.30;;;;;;4974888;28;20033;-75
2022/03/02 08:08:38;;;;;;;17.77;12.73;;;6.80;99.10;;;;;;4988006;28;20493;-74
2022/03/02 08:11:05;;;;;;;13.98;11.02;;;6.80;99.50;;;;;;4987463;28;20042;-74
2022/03/02 08:13:34;;;;;;;14.23;11.88;;;6.80;99.80;;;;;;4978985;28;20050;-76
2022/03/02 08:16:00;;;;;;;15.25;12.30;;;6.80;99.60;;;;;;4988021;28;20408;-77
2022/03/02 08:18:27;;;;;;;15.32;11.95;;;6.90;99.90;;;;;;4986516;28;20489;-74
2022/03/02 08:20:57;;;;;;;12.35;10.95;;;6.90;99.70;;;;;;4986721;28;20036;-75
2022/03/02 08:23:28;;;;;;;11.23;10.07;;;7.00;99.80;;;;;;4969381;28;20122;-77
2022/03/02 08:25:54;;;;;;;14.23;11.43;;;7.10;99.70;;;;;;4987644;28;20443;-75
2022/03/02 08:28:23;;;;;;;11.82;9.77;;;7.20;99.40;;;;;;4991333;28;20053;-76
2022/03/02 08:30:53;;;;;;;10.88;8.70;;;7.40;99.00;;;;;;4973289;28;20456;-76
2022/03/02 08:33:29;;;;;;;15.10;10.23;;;7.50;99.00;;;;;;4991453;28;20042;-74
2022/03/02 08:35:56;;;;;;;16.50;11.68;;;7.60;99.00;;;;;;4988043;28;20024;-74
2022/03/02 08:38:23;;;;;;;13.43;9.43;;;7.60;99.10;;;;;;4973822;28;20027;-75
2022/03/02 08:40:49;;;;;;;13.82;9.95;;;7.70;98.50;;;;;;4973942;28;20557;-75
2022/03/02 08:43:18;;;;;;;11.45;9.65;;;7.80;98.90;;;;;;4986613;28;20121;-76
2022/03/02 08:45:46;;;;;;;13.85;9.75;;;7.70;98.70;;;;;;4967851;28;20496;-69
2022/03/02 08:48:15;;;;;;;14.55;9.48;;;7.80;99.90;;;;;;4965236;28;20034;-69
2022/03/02 08:50:42;;;;;;;13.50;10.95;;;8.10;99.90;;;;;;4971750;28;20094;-68
2022/03/02 08:53:13;;;;;;;20.17;10.13;;;8.20;99.90;;;;;;4970689;28;20025;-69
2022/03/02 08:55:40;;;;;;;14.45;11.35;;;8.30;99.90;;;;;;4989672;28;20030;-68
2022/03/02 08:58:06;;;;;;;13.07;11.23;;;8.40;99.90;;;;;;4968388;28;20058;-68
2022/03/02 09:00:33;;;;;;;12.60;9.85;;;8.50;99.90;;;;;;4990944;28;20197;-67
2022/03/02 09:03:01;;;;;;;11.88;9.80;;;8.60;99.90;;;;;;4965805;28;20023;-68
2022/03/02 09:05:28;;;;;;;11.32;8.77;;;8.40;99.90;;;;;;4988124;28;20037;-66
2022/03/02 09:07:55;;;;;;;15.25;8.15;;;8.30;99.90;;;;;;4991959;28;20030;-68
2022/03/02 09:10:21;;;;;;;10.65;8.82;;;8.20;99.90;;;;;;4968588;28;20026;-69
2022/03/02 09:12:47;;;;;;;18.10;8.02;;;8.20;99.90;;;;;;4989744;28;20019;-69
2022/03/02 09:15:12;;;;;;;9.45;7.80;;;8.10;99.90;;;;;;4987574;28;20175;-69
2022/03/02 09:17:38;;;;;;;13.68;8.40;;;8.00;99.90;;;;;;4987196;28;20073;-69
2022/03/02 09:20:06;;;;;;;10.48;8.32;;;8.00;99.90;;;;;;4974426;28;20023;-68
2022/03/02 09:22:33;;;;;;;18.48;9.13;;;8.00;99.90;;;;;;4974527;28;20038;-68
2022/03/02 09:24:59;;;;;;;8.13;7.32;;;7.90;99.90;;;;;;4992085;28;20028;-69
2022/03/02 09:27:29;;;;;;;10.25;7.70;;;7.80;99.90;;;;;;4993870;28;20120;-68
2022/03/02 09:29:59;;;;;;;10.40;8.30;;;7.90;99.90;;;;;;4984795;28;20048;-70
2022/03/02 09:32:25;;;;;;;15.88;8.55;;;7.90;99.90;;;;;;4972399;28;20030;-68
2022/03/02 09:34:55;;;;;;;15.38;8.00;;;8.00;99.90;;;;;;4990032;28;20485;-68
2022/03/02 09:37:24;;;;;;;9.90;6.72;;;7.90;99.90;;;;;;4992177;28;20092;-68
2022/03/02 09:39:51;;;;;;;16.35;8.50;;;7.90;99.90;;;;;;4991091;28;20026;-68
2022/03/02 09:42:40;;;;;;;9.65;7.10;;;7.90;99.90;;;;;;4983347;28;20088;-68
2022/03/02 09:45:10;;;;;;;12.57;8.20;;;7.90;99.90;;;;;;4980398;28;20031;-68
2022/03/02 09:47:50;;;;;;;11.43;7.30;;;7.80;99.90;;;;;;4983394;28;20031;-69
2022/03/02 09:50:18;;;;;;;13.70;7.38;;;7.80;99.90;;;;;;4984692;28;20053;-68
2022/03/02 09:52:48;;;;;;;9.82;7.40;;;7.80;99.90;;;;;;4973817;28;20027;-69
2022/03/02 09:55:21;;;;;;;10.07;6.28;;;7.90;99.90;;;;;;4972462;28;20030;-70
2022/03/02 09:57:52;;;;;;;8.85;6.78;;;7.90;99.90;;;;;;4991848;28;20019;-69
2022/03/02 10:00:21;;;;;;;10.02;6.03;;;7.90;99.90;;;;;;4949476;28;20146;-68
2022/03/02 10:02:51;;;;;;;9.15;8.25;;;8.00;99.90;;;;;;4973603;28;20019;-68
2022/03/02 10:05:23;;;;;;;8.70;6.47;;;7.90;99.90;;;;;;4991507;28;20370;-69
2022/03/02 10:07:56;;;;;;;17.77;8.77;;;7.80;99.90;;;;;;4991604;28;20500;-67
2022/03/02 10:10:23;;;;;;;9.43;6.90;;;7.90;99.90;;;;;;4969768;28;20054;-68
2022/03/02 10:12:54;;;;;;;15.25;7.97;;;7.90;99.90;;;;;;4972438;28;20035;-69
2022/03/02 10:15:20;;;;;;;9.38;6.40;;;8.00;99.90;;;;;;4991023;28;20026;-68
2022/03/02 10:17:51;;;;;;;11.65;7.50;;;8.00;99.90;;;;;;4988044;28;20026;-70
2022/03/02 10:20:28;;;;;;;12.30;8.18;;;8.00;99.90;;;;;;4990379;28;20098;-67
2022/03/02 10:23:05;;;;;;;10.40;7.72;;;8.10;99.90;;;;;;4990081;28;20162;-68
2022/03/02 10:26:01;;;;;;;8.73;7.47;;;8.20;99.90;;;;;;4986733;28;20405;-73
2022/03/02 10:28:30;;;;;;;10.95;7.40;;;8.20;99.90;;;;;;4943981;28;20042;-67
2022/03/02 10:31:27;;;;;;;16.00;7.90;;;8.30;99.90;;;;;;4989721;28;20026;-67
2022/03/02 10:34:01;;;;;;;14.55;7.50;;;8.30;99.90;;;;;;4981441;28;20026;-68
2022/03/02 10:36:30;;;;;;;14.27;7.53;;;8.40;99.90;;;;;;4988588;28;20019;-69
2022/03/02 10:39:07;;;;;;;15.65;8.65;;;8.40;99.90;;;;;;4985178;28;20110;-65
2022/03/02 10:41:39;;;;;;;11.95;8.27;;;8.40;99.90;;;;;;4972086;28;20015;-69
2022/03/02 10:44:14;;;;;;;10.25;7.55;;;8.40;99.90;;;;;;4976803;28;20076;-67
2022/03/02 10:46:57;;;;;;;9.73;7.38;;;8.40;99.90;;;;;;4975046;28;20188;-65
2022/03/02 10:49:24;;;;;;;13.05;9.07;;;8.50;99.90;;;;;;4957862;28;20477;-67
2022/03/02 10:51:50;;;;;;;10.02;7.80;;;8.60;99.90;;;;;;4993255;28;20102;-66
2022/03/02 10:54:20;;;;;;;13.43;8.77;;;8.50;99.90;;;;;;5000148;28;20026;-69
2022/03/02 10:56:51;;;;;;;10.43;8.40;;;8.50;99.90;;;;;;4990045;28;20030;-66
2022/03/02 10:59:23;;;;;;;9.27;8.15;;;8.50;99.90;;;;;;4994227;28;20026;-67
2022/03/02 11:01:50;;;;;;;;;;;8.50;99.90;;;;;;4992270;28;20027;-67
2022/03/02 11:04:21;;;;;;;13.80;8.75;;;8.60;99.90;;;;;;4974444;28;19916;-66
2022/03/02 11:06:47;;;;;;;9.98;8.88;;;8.60;99.90;;;;;;4993254;28;20045;-68
2022/03/02 11:09:16;;;;;;;12.68;9.18;;;8.80;99.90;;;;;;4993239;28;20022;-70
2022/03/02 11:11:42;;;;;;;11.18;8.77;;;8.80;99.90;;;;;;4983235;28;20046;-68
2022/03/02 11:14:09;;;;;;;10.13;8.75;;;8.90;99.90;;;;;;4991094;28;20029;-68
2022/03/02 11:16:36;;;;;;;12.40;9.57;;;8.90;99.90;;;;;;4993965;28;20073;-69
2022/03/02 11:19:14;;;;;;;10.27;8.23;;;8.90;99.90;;;;;;4972071;28;20022;-70
2022/03/02 11:21:42;;;;;;;9.75;8.27;;;9.00;99.90;;;;;;4990516;28;20029;-69
2022/03/02 11:24:13;;;;;;;16.10;11.98;;;9.10;99.90;;;;;;4976714;28;20084;-68
2022/03/02 11:26:41;;;;;;;11.75;8.85;;;9.20;99.90;;;;;;4994690;28;20023;-68
2022/03/02 11:29:18;;;;;;;12.93;11.20;;;9.30;99.90;;;;;;4992085;28;20534;-68
2022/03/02 11:31:48;;;;;;;10.23;9.18;;;9.30;99.90;;;;;;4993371;28;20045;-74
2022/03/02 11:34:29;;;;;;;11.23;9.73;;;9.40;99.90;;;;;;4990992;28;20077;-67
2022/03/02 11:36:58;;;;;;;13.93;11.43;;;9.50;99.90;;;;;;4975945;28;20105;-67
2022/03/02 11:39:26;;;;;;;12.50;11.20;;;9.40;99.90;;;;;;4993782;28;20489;-70
2022/03/02 11:41:57;;;;;;;14.88;11.82;;;9.40;99.90;;;;;;4976065;28;20022;-70
2022/03/02 11:44:39;;;;;;;12.15;10.60;;;9.60;99.90;;;;;;4994162;28;20034;-70
2022/03/02 11:47:11;;;;;;;13.30;11.77;;;9.70;99.90;;;;;;4990472;28;20037;-68
2022/03/02 11:49:57;;;;;;;16.65;14.50;;;9.80;99.90;;;;;;4990644;28;20031;-71
2022/03/02 11:52:36;;;;;;;14.63;12.77;;;9.80;99.90;;;;;;4992038;28;20362;-71
2022/03/02 11:55:08;;;;;;;21.50;14.23;;;9.90;99.90;;;;;;4978360;28;20030;-66
2022/03/02 11:57:53;;;;;;;17.65;13.85;;;9.90;99.90;;;;;;4978907;28;20022;-67
2022/03/02 12:00:23;;;;;;;16.77;13.35;;;10.10;99.90;;;;;;4992687;28;20027;-68
2022/03/02 12:02:53;;;;;;;16.60;13.15;;;10.20;99.90;;;;;;4975151;28;20026;-68
2022/03/02 12:05:30;;;;;;;12.55;11.25;;;10.20;99.90;;;;;;4962836;28;20296;-69
2022/03/02 12:08:10;;;;;;;15.18;13.23;;;10.20;99.90;;;;;;4987307;28;20117;-67
2022/03/02 12:10:38;;;;;;;17.88;11.63;;;10.30;99.90;;;;;;4982791;28;20022;-70
2022/03/02 12:13:04;;;;;;;13.30;11.68;;;10.30;99.90;;;;;;4993924;28;20053;-68
2022/03/02 12:15:48;;;;;;;16.75;14.20;;;10.30;99.90;;;;;;4980377;28;20049;-68
2022/03/02 12:18:15;;;;;;;14.55;13.00;;;10.30;99.90;;;;;;4959172;28;20031;-68
2022/03/02 12:20:53;;;;;;;15.32;11.45;;;10.00;99.90;;;;;;4976337;28;20492;-67
2022/03/02 12:23:27;;;;;;;13.57;12.00;;;9.80;99.90;;;;;;4973448;28;20110;-68
2022/03/02 12:25:54;;;;;;;21.25;16.35;;;9.70;99.90;;;;;;4958093;28;20134;-69
2022/03/02 12:28:21;;;;;;;16.98;15.27;;;9.50;99.90;;;;;;4973722;28;20026;-69
2022/03/02 12:30:46;;;;;;;18.08;15.43;;;9.40;99.90;;;;;;4973084;28;20030;-67
2022/03/02 12:33:12;;;;;;;17.77;15.02;;;9.60;99.90;;;;;;4956006;28;20477;-67
2022/03/02 12:35:39;;;;;;;19.08;14.82;;;9.60;99.90;;;;;;4974036;28;20027;-67
2022/03/02 12:38:08;;;;;;;18.10;15.13;;;9.60;99.90;;;;;;4972156;28;20045;-67
2022/03/02 12:40:39;;;;;;;19.33;17.33;;;9.50;99.90;;;;;;4970589;28;20097;-67
2022/03/02 12:43:07;;;;;;;17.75;14.65;;;9.30;99.90;;;;;;4976151;28;20029;-70
2022/03/02 12:45:40;;;;;;;22.52;18.45;;;9.30;99.90;;;;;;4988402;28;20436;-67
2022/03/02 12:48:07;;;;;;;27.40;17.70;;;9.30;99.90;;;;;;4972904;28;20034;-65
2022/03/02 12:50:34;;;;;;;20.42;17.90;;;9.30;99.90;;;;;;4961657;28;20057;-67
2022/03/02 12:53:01;;;;;;;22.13;18.70;;;9.30;99.90;;;;;;4979106;28;20047;-68
2022/03/02 12:55:28;;;;;;;23.45;16.85;;;9.10;99.90;;;;;;4991833;28;20045;-68